createdAt,value
2023-04-17T00:00:39.936Z,2.05
2023-04-17T00:03:07.378Z,1.38
2023-04-17T00:05:34.903Z,1.15
2023-04-17T00:08:02.406Z,1.25
2023-04-17T00:10:29.900Z,1.80
2023-04-17T00:12:56.831Z,1.40
2023-04-17T00:15:23.860Z,1.35
2023-04-17T00:17:50.791Z,1.38
2023-04-17T00:20:18.102Z,1.10
2023-04-17T00:22:45.158Z,1.00
2023-04-17T00:25:14.849Z,1.30
2023-04-17T00:27:42.944Z,1.67
2023-04-17T00:30:10.311Z,1.20
2023-04-17T00:32:37.160Z,1.42
2023-04-17T00:35:04.306Z,1.75
2023-04-17T00:37:31.224Z,1.50
2023-04-17T00:39:58.107Z,1.27
2023-04-17T00:42:25.063Z,1.52
2023-04-17T00:44:51.964Z,2.20
2023-04-17T00:47:19.406Z,2.13
2023-04-17T00:49:46.434Z,1.85
2023-04-17T00:52:16.679Z,1.80
2023-04-17T00:54:44.084Z,1.83
2023-04-17T00:57:11.157Z,2.08
2023-04-17T00:59:40.419Z,3.30
2023-04-17T01:02:07.480Z,1.73
2023-04-17T01:04:34.568Z,2.33
2023-04-17T01:07:01.653Z,1.55
2023-04-17T01:09:29.000Z,1.63
2023-04-17T01:12:19.814Z,1.90
2023-04-17T01:14:47.098Z,1.95
2023-04-17T01:17:14.428Z,1.30
2023-04-17T01:19:41.799Z,1.98
2023-04-17T01:22:09.013Z,2.45
2023-04-17T01:24:36.997Z,2.88
2023-04-17T01:27:04.828Z,1.25
2023-04-17T01:29:31.763Z,1.40
2023-04-17T01:31:58.708Z,1.10
2023-04-17T01:34:25.742Z,2.30
2023-04-17T01:36:52.662Z,1.45
2023-04-17T01:39:19.578Z,2.17
2023-04-17T01:41:46.506Z,1.30
2023-04-17T01:44:13.539Z,0.70
2023-04-17T01:46:40.944Z,1.10
2023-04-17T01:49:08.051Z,1.10
2023-04-17T01:51:34.979Z,0.88
2023-04-17T01:54:01.946Z,1.02
2023-04-17T01:56:29.264Z,0.90
2023-04-17T01:58:56.152Z,1.20
2023-04-17T02:01:23.119Z,0.95
2023-04-17T02:03:50.254Z,1.67
2023-04-17T02:06:17.723Z,1.83
2023-04-17T02:08:44.739Z,1.60
2023-04-17T02:11:13.563Z,2.55
2023-04-17T02:13:40.847Z,1.77
2023-04-17T02:16:09.593Z,1.90
2023-04-17T02:18:36.662Z,2.13
2023-04-17T02:21:03.695Z,2.17
2023-04-17T02:23:30.698Z,1.77
2023-04-17T02:25:57.858Z,2.15
2023-04-17T02:28:24.694Z,2.05
2023-04-17T02:30:51.591Z,1.77
2023-04-17T02:33:18.867Z,1.92
2023-04-17T02:35:46.599Z,2.13
2023-04-17T02:38:13.894Z,1.40
2023-04-17T02:40:40.850Z,1.80
2023-04-17T02:43:08.115Z,1.35
2023-04-17T02:45:35.676Z,2.03
2023-04-17T02:48:03.034Z,1.90
2023-04-17T02:50:29.961Z,2.85
2023-04-17T02:52:57.293Z,2.13
2023-04-17T02:55:24.990Z,2.05
2023-04-17T02:57:52.245Z,1.73
2023-04-17T03:00:19.209Z,2.03
2023-04-17T03:02:46.936Z,1.88
2023-04-17T03:05:15.112Z,2.08
2023-04-17T03:07:42.282Z,2.67
2023-04-17T03:10:09.671Z,2.38
2023-04-17T03:12:36.808Z,1.67
2023-04-17T03:15:04.309Z,2.53
2023-04-17T03:17:31.242Z,3.58
2023-04-17T03:19:58.146Z,1.70
2023-04-17T03:22:25.095Z,1.83
2023-04-17T03:24:52.046Z,2.63
2023-04-17T03:27:24.419Z,1.95
2023-04-17T03:29:52.070Z,2.38
2023-04-17T03:32:19.027Z,1.75
2023-04-17T03:34:46.004Z,1.80
2023-04-17T03:37:14.545Z,1.85
2023-04-17T03:39:41.510Z,2.38
2023-04-17T03:42:09.970Z,2.33
2023-04-17T03:44:36.849Z,2.05
2023-04-17T03:47:03.679Z,2.17
2023-04-17T03:49:30.564Z,2.40
2023-04-17T03:51:57.486Z,2.05
2023-04-17T03:54:24.384Z,4.00
2023-04-17T03:56:51.639Z,2.15
2023-04-17T03:59:18.478Z,2.00
2023-04-17T04:01:46.905Z,3.38
2023-04-17T04:04:14.033Z,2.13
2023-04-17T04:06:42.792Z,2.38
2023-04-17T04:09:10.250Z,4.57
2023-04-17T04:11:37.700Z,4.07
2023-04-17T04:14:04.623Z,2.95
2023-04-17T04:16:31.960Z,2.75
2023-04-17T04:18:58.816Z,2.45
2023-04-17T04:21:25.646Z,2.60
2023-04-17T04:23:52.460Z,2.95
2023-04-17T04:26:21.751Z,2.92
2023-04-17T04:28:49.061Z,2.60
2023-04-17T04:31:20.604Z,3.78
2023-04-17T04:33:47.610Z,3.95
2023-04-17T04:36:20.948Z,3.25
2023-04-17T04:38:50.632Z,2.40
2023-04-17T04:41:20.033Z,2.38
2023-04-17T04:43:46.977Z,3.70
2023-04-17T04:46:13.931Z,2.88
2023-04-17T04:48:42.857Z,3.03
2023-04-17T04:51:10.103Z,3.63
2023-04-17T04:53:37.348Z,3.95
2023-04-17T04:56:04.430Z,3.53
2023-04-17T04:58:31.344Z,4.57
2023-04-17T05:00:58.717Z,3.47
2023-04-17T05:03:25.865Z,2.75
2023-04-17T05:05:52.846Z,3.38
2023-04-17T05:08:20.450Z,3.15
2023-04-17T05:10:47.765Z,2.90
2023-04-17T05:13:14.816Z,3.28
2023-04-17T05:15:41.714Z,3.17
2023-04-17T05:18:09.022Z,5.72
2023-04-17T05:20:37.803Z,4.45
2023-04-17T05:23:04.830Z,3.67
2023-04-17T05:25:31.796Z,3.22
2023-04-17T05:27:58.727Z,4.63
2023-04-17T05:30:26.011Z,3.17
2023-04-17T05:32:54.077Z,3.28
2023-04-17T05:35:21.050Z,3.45
2023-04-17T05:37:47.882Z,3.35
2023-04-17T05:40:15.445Z,3.60
2023-04-17T05:42:42.753Z,5.68
2023-04-17T05:45:16.318Z,7.43
2023-04-17T05:47:43.295Z,5.30
2023-04-17T05:50:11.034Z,4.20
2023-04-17T05:52:39.527Z,4.10
2023-04-17T05:55:07.499Z,3.42
2023-04-17T05:57:34.488Z,3.35
2023-04-17T06:00:01.425Z,3.42
2023-04-17T06:02:28.607Z,3.40
2023-04-17T06:04:58.489Z,3.55
2023-04-17T06:07:26.347Z,3.30
2023-04-17T06:09:53.194Z,3.47
2023-04-17T06:12:20.177Z,5.47
2023-04-17T06:14:47.007Z,3.53
2023-04-17T06:17:14.034Z,5.60
2023-04-17T06:19:41.023Z,4.10
2023-04-17T06:22:08.414Z,3.72
2023-04-17T06:24:36.969Z,7.43
2023-04-17T06:27:04.665Z,2.55
2023-04-17T06:29:31.597Z,3.25
2023-04-17T06:31:58.504Z,3.85
2023-04-17T06:34:25.448Z,5.18
2023-04-17T06:36:53.547Z,4.00
2023-04-17T06:39:22.150Z,3.97
2023-04-17T06:41:50.469Z,3.47
2023-04-17T06:44:18.296Z,3.47
2023-04-17T06:46:45.507Z,3.63
2023-04-17T06:49:13.037Z,3.72
2023-04-17T06:51:40.035Z,3.00
2023-04-17T06:54:09.895Z,3.83
2023-04-17T06:56:36.793Z,3.30
2023-04-17T06:59:03.782Z,3.72
2023-04-17T07:01:31.523Z,4.03
2023-04-17T07:03:58.596Z,3.13
2023-04-17T07:06:26.165Z,3.08
2023-04-17T07:08:55.429Z,4.15
2023-04-17T07:11:22.490Z,3.45
2023-04-17T07:13:49.410Z,4.05
2023-04-17T07:16:16.768Z,4.20
2023-04-17T07:18:44.062Z,5.90
2023-04-17T07:21:11.309Z,4.43
2023-04-17T07:23:38.226Z,3.45
2023-04-17T07:26:05.675Z,46.17
2023-04-17T07:28:32.523Z,18.15
2023-04-17T07:30:59.434Z,4.88
2023-04-17T07:33:26.890Z,3.60
2023-04-17T07:35:53.961Z,4.22
2023-04-17T07:38:20.868Z,9.25
2023-04-17T07:40:48.110Z,4.22
2023-04-17T07:43:16.745Z,5.07
2023-04-17T07:45:44.077Z,5.20
2023-04-17T07:48:11.197Z,3.53
2023-04-17T07:50:38.281Z,3.83
2023-04-17T07:53:05.196Z,6.03
2023-04-17T07:55:32.061Z,3.67
2023-04-17T07:58:01.660Z,2.80
2023-04-17T08:00:28.497Z,3.72
2023-04-17T08:02:55.499Z,2.85
2023-04-17T08:05:23.854Z,3.45
2023-04-17T08:07:50.986Z,3.22
2023-04-17T08:10:18.311Z,4.30
2023-04-17T08:12:45.923Z,3.72
2023-04-17T08:15:12.782Z,3.55
2023-04-17T08:17:40.091Z,3.67
2023-04-17T08:20:11.348Z,3.22
2023-04-17T08:22:43.248Z,3.97
2023-04-17T08:25:10.862Z,4.80
2023-04-17T08:27:39.922Z,3.80
2023-04-17T08:30:11.977Z,3.70
2023-04-17T08:32:41.277Z,3.03
2023-04-17T08:35:12.605Z,2.67
2023-04-17T08:37:40.853Z,3.30
2023-04-17T08:40:12.311Z,2.65
2023-04-17T08:42:41.755Z,3.10
2023-04-17T08:45:11.837Z,3.08
2023-04-17T08:47:43.041Z,3.35
2023-04-17T08:50:18.811Z,4.78
2023-04-17T08:52:47.967Z,3.03
2023-04-17T08:55:20.626Z,4.13
2023-04-17T08:57:57.486Z,5.50
2023-04-17T09:00:26.042Z,4.00
2023-04-17T09:02:54.685Z,2.20
2023-04-17T09:05:23.656Z,3.45
2023-04-17T09:08:06.127Z,3.38
2023-04-17T09:10:45.941Z,3.05
2023-04-17T09:13:15.825Z,3.65
2023-04-17T09:15:44.306Z,2.65
2023-04-17T09:18:30.978Z,3.17
2023-04-17T09:21:00.030Z,4.35
2023-04-17T09:23:29.841Z,3.47
2023-04-17T09:26:10.958Z,2.72
2023-04-17T09:28:41.484Z,2.80
2023-04-17T09:31:30.438Z,7.65
2023-04-17T09:34:00.007Z,2.72
2023-04-17T09:36:30.855Z,2.53
2023-04-17T09:39:04.664Z,3.05
2023-04-17T09:41:39.402Z,2.58
2023-04-17T09:44:06.562Z,3.95
2023-04-17T09:46:47.915Z,3.50
2023-04-17T09:49:39.886Z,3.65
2023-04-17T09:52:07.410Z,2.30
2023-04-17T09:54:38.492Z,2.33
2023-04-17T09:57:09.482Z,2.22
2023-04-17T09:59:41.575Z,3.70
2023-04-17T10:02:09.855Z,4.18
2023-04-17T10:04:41.078Z,3.25
2023-04-17T10:07:08.274Z,6.50
2023-04-17T10:09:35.825Z,3.63
2023-04-17T10:12:04.515Z,3.28
2023-04-17T10:14:34.090Z,2.58
2023-04-17T10:17:34.714Z,3.13
2023-04-17T10:20:23.255Z,3.88
2023-04-17T10:22:56.432Z,14.13
2023-04-17T10:25:24.501Z,3.20
2023-04-17T10:28:04.180Z,6.13
2023-04-17T10:30:52.370Z,4.60
2023-04-17T10:33:22.100Z,2.75
2023-04-17T10:35:49.425Z,4.75
2023-04-17T10:38:17.629Z,3.30
2023-04-17T10:40:45.364Z,3.05
2023-04-17T10:43:23.032Z,4.28
2023-04-17T10:45:57.246Z,6.45
2023-04-17T10:48:29.794Z,7.00
2023-04-17T10:50:56.984Z,12.00
2023-04-17T10:53:43.839Z,3.53
2023-04-17T10:56:19.464Z,9.82
2023-04-17T10:59:06.327Z,5.18
2023-04-17T11:01:48.393Z,3.80
2023-04-17T11:04:33.854Z,7.70
2023-04-17T11:07:01.451Z,4.65
2023-04-17T11:09:29.643Z,3.30
2023-04-17T11:12:02.066Z,3.15
2023-04-17T11:14:30.349Z,4.18
2023-04-17T11:16:57.752Z,5.53
2023-04-17T11:19:26.246Z,6.47
2023-04-17T11:22:01.546Z,2.55
2023-04-17T11:24:32.292Z,4.10
2023-04-17T11:27:01.177Z,3.38
2023-04-17T11:29:28.256Z,4.20
2023-04-17T11:31:57.443Z,5.38
2023-04-17T11:34:26.762Z,4.90
2023-04-17T11:36:57.110Z,4.45
2023-04-17T11:39:26.801Z,4.70
2023-04-17T11:41:54.122Z,5.57
2023-04-17T11:44:21.527Z,7.82
2023-04-17T11:46:53.545Z,4.70
2023-04-17T11:49:28.618Z,3.92
2023-04-17T11:52:03.549Z,6.30
2023-04-17T11:54:37.100Z,6.75
2023-04-17T11:57:06.418Z,6.88
2023-04-17T11:59:38.559Z,13.52
2023-04-17T12:02:07.578Z,6.25
2023-04-17T12:04:36.608Z,10.77
2023-04-17T12:07:05.160Z,10.18
2023-04-17T12:09:33.063Z,7.97
2023-04-17T12:12:01.830Z,14.38
2023-04-17T12:14:29.019Z,7.05
2023-04-17T12:16:55.996Z,15.23
2023-04-17T12:19:25.438Z,12.00
2023-04-17T12:21:52.894Z,8.93
2023-04-17T12:24:21.971Z,7.97
2023-04-17T12:26:50.434Z,4.90
2023-04-17T12:29:17.877Z,5.88
2023-04-17T12:31:46.062Z,7.53
2023-04-17T12:34:13.329Z,6.15
2023-04-17T12:36:41.651Z,4.75
2023-04-17T12:39:08.698Z,6.15
2023-04-17T12:41:36.095Z,4.25
2023-04-17T12:44:03.875Z,7.25
2023-04-17T12:46:31.154Z,8.80
2023-04-17T12:49:01.032Z,5.82
2023-04-17T12:51:28.059Z,5.90
2023-04-17T12:53:57.206Z,5.10
2023-04-17T12:56:24.634Z,13.20
2023-04-17T12:58:51.912Z,15.75
2023-04-17T13:01:19.088Z,7.32
2023-04-17T13:03:46.287Z,7.95
2023-04-17T13:06:13.824Z,6.78
2023-04-17T13:08:40.868Z,5.82
2023-04-17T13:11:08.174Z,6.03
2023-04-17T13:13:35.042Z,6.18
2023-04-17T13:16:02.224Z,4.53
2023-04-17T13:18:29.331Z,4.78
2023-04-17T13:20:57.529Z,7.85
2023-04-17T13:23:24.488Z,5.55
2023-04-17T13:25:51.840Z,10.32
2023-04-17T13:28:19.150Z,10.38
2023-04-17T13:30:46.503Z,12.13
2023-04-17T13:33:13.463Z,10.07
2023-04-17T13:35:41.124Z,9.27
2023-04-17T13:38:08.147Z,7.32
2023-04-17T13:40:36.385Z,6.85
2023-04-17T13:43:06.076Z,12.32
2023-04-17T13:45:33.397Z,8.20
2023-04-17T13:48:01.030Z,6.00
2023-04-17T13:50:27.932Z,7.78
2023-04-17T13:52:54.801Z,6.68
2023-04-17T13:55:21.738Z,7.10
2023-04-17T13:57:49.131Z,8.57
2023-04-17T14:00:17.339Z,7.25
2023-04-17T14:02:44.426Z,7.00
2023-04-17T14:05:11.788Z,6.07
2023-04-17T14:07:40.052Z,5.65
2023-04-17T14:10:08.370Z,6.78
2023-04-17T14:12:35.424Z,5.57
2023-04-17T14:15:02.732Z,9.80
2023-04-17T14:17:29.800Z,10.65
2023-04-17T14:19:57.119Z,6.38
2023-04-17T14:22:24.600Z,8.20
2023-04-17T14:24:51.466Z,8.45
2023-04-17T14:27:18.447Z,7.43
2023-04-17T14:29:45.425Z,11.25
2023-04-17T14:32:12.364Z,14.13
2023-04-17T14:34:39.702Z,10.48
2023-04-17T14:37:07.087Z,10.25
2023-04-17T14:39:34.138Z,18.40
2023-04-17T14:42:02.395Z,14.88
2023-04-17T14:44:29.504Z,10.00
2023-04-17T14:46:57.058Z,7.53
2023-04-17T14:49:24.502Z,7.72
2023-04-17T14:51:51.364Z,5.22
2023-04-17T14:54:18.337Z,4.75
2023-04-17T14:56:45.515Z,5.30
2023-04-17T14:59:12.599Z,5.25
2023-04-17T15:01:39.772Z,4.40
2023-04-17T15:04:06.880Z,5.90
2023-04-17T15:06:33.966Z,4.38
2023-04-17T15:09:00.878Z,5.75
2023-04-17T15:11:27.802Z,6.60
2023-04-17T15:13:54.696Z,5.57
2023-04-17T15:16:23.011Z,6.03
2023-04-17T15:18:51.155Z,6.00
2023-04-17T15:21:19.127Z,5.93
2023-04-17T15:23:49.416Z,8.15
2023-04-17T15:26:16.405Z,4.40
2023-04-17T15:28:43.300Z,6.63
2023-04-17T15:31:10.211Z,5.30
2023-04-17T15:33:37.915Z,4.47
2023-04-17T15:36:05.029Z,5.85
2023-04-17T15:38:32.483Z,4.32
2023-04-17T15:40:59.765Z,5.20
2023-04-17T15:43:27.236Z,5.47
2023-04-17T15:45:55.185Z,5.75
2023-04-17T15:48:22.706Z,5.90
2023-04-17T15:50:49.522Z,5.80
2023-04-17T15:53:18.169Z,6.18
2023-04-17T15:55:45.114Z,5.90
2023-04-17T15:58:12.510Z,5.55
2023-04-17T16:00:39.422Z,6.82
2023-04-17T16:03:09.449Z,7.18
2023-04-17T16:05:36.423Z,6.70
2023-04-17T16:08:04.067Z,7.07
2023-04-17T16:10:31.106Z,6.40
2023-04-17T16:12:59.099Z,7.70
2023-04-17T16:15:26.058Z,8.35
2023-04-17T16:17:52.973Z,9.30
2023-04-17T16:20:19.921Z,8.48
2023-04-17T16:22:47.253Z,8.80
2023-04-17T16:25:14.195Z,8.02
2023-04-17T16:27:41.166Z,9.00
2023-04-17T16:30:09.952Z,9.20
2023-04-17T16:32:36.970Z,7.25
2023-04-17T16:35:04.193Z,6.55
2023-04-17T16:37:31.097Z,8.85
2023-04-17T16:40:04.291Z,9.38
2023-04-17T16:42:34.237Z,10.18
2023-04-17T16:45:01.306Z,11.52
2023-04-17T16:47:31.688Z,11.63
2023-04-17T16:49:58.838Z,11.23
2023-04-17T16:52:25.652Z,14.70
2023-04-17T16:54:53.728Z,11.77
2023-04-17T16:57:21.608Z,11.68
2023-04-17T16:59:48.886Z,11.80
2023-04-17T17:02:16.256Z,9.50
2023-04-17T17:04:45.013Z,10.65
2023-04-17T17:07:12.166Z,9.30
2023-04-17T17:09:38.966Z,10.32
2023-04-17T17:12:06.761Z,11.60
2023-04-17T17:14:33.655Z,9.35
2023-04-17T17:17:00.644Z,13.40
2023-04-17T17:19:27.607Z,15.25
2023-04-17T17:21:55.426Z,18.67
2023-04-17T17:24:22.823Z,16.02
2023-04-17T17:26:49.800Z,28.70
2023-04-17T17:29:16.819Z,32.63
2023-04-17T17:31:43.854Z,28.35
2023-04-17T17:34:25.573Z,31.25
2023-04-17T17:36:53.824Z,41.40
2023-04-17T17:39:22.037Z,34.03
2023-04-17T17:41:49.437Z,27.90
2023-04-17T17:44:16.337Z,39.55
2023-04-17T17:46:43.248Z,27.52
2023-04-17T17:49:11.646Z,21.02
2023-04-17T17:51:38.992Z,37.22
2023-04-17T17:54:05.902Z,19.40
2023-04-17T17:56:33.251Z,35.45
2023-04-17T17:59:00.343Z,35.50
2023-04-17T18:01:27.276Z,20.13
2023-04-17T18:03:54.532Z,21.00
2023-04-17T18:06:21.872Z,18.77
2023-04-17T18:08:48.804Z,30.58
2023-04-17T18:11:15.896Z,20.25
2023-04-17T18:13:42.792Z,21.80
2023-04-17T18:16:10.191Z,26.67
2023-04-17T18:18:37.226Z,23.83
2023-04-17T18:21:09.313Z,15.88
2023-04-17T18:23:36.661Z,18.98
2023-04-17T18:26:04.349Z,19.48
2023-04-17T18:28:31.452Z,17.60
2023-04-17T18:30:58.474Z,17.52
2023-04-17T18:33:25.837Z,18.15
2023-04-17T18:35:52.840Z,18.83
2023-04-17T18:38:20.268Z,19.17
2023-04-17T18:40:47.653Z,17.23
2023-04-17T18:43:17.690Z,17.25
2023-04-17T18:45:44.588Z,18.83
2023-04-17T18:48:11.466Z,17.02
2023-04-17T18:50:38.824Z,21.35
2023-04-17T18:53:06.280Z,20.05
2023-04-17T18:55:35.225Z,24.58
2023-04-17T18:58:02.701Z,24.52
2023-04-17T19:00:30.036Z,20.63
2023-04-17T19:02:57.894Z,25.55
2023-04-17T19:05:26.192Z,32.92
2023-04-17T19:07:53.404Z,29.60
2023-04-17T19:10:20.852Z,23.60
2023-04-17T19:12:48.135Z,23.50
2023-04-17T19:15:17.620Z,20.73
2023-04-17T19:17:47.149Z,22.95
2023-04-17T19:20:16.671Z,18.92
2023-04-17T19:22:43.627Z,16.55
2023-04-17T19:25:10.997Z,20.58
2023-04-17T19:27:38.005Z,22.48
2023-04-17T19:30:08.558Z,21.67
2023-04-17T19:32:35.660Z,16.95
2023-04-17T19:35:02.720Z,20.00
2023-04-17T19:37:29.699Z,23.30
2023-04-17T19:39:56.925Z,17.63
2023-04-17T19:42:24.116Z,13.88
2023-04-17T19:44:50.987Z,13.18
2023-04-17T19:47:17.903Z,17.77
2023-04-17T19:49:45.197Z,10.02
2023-04-17T19:52:12.394Z,10.35
2023-04-17T19:54:39.762Z,11.48
2023-04-17T19:57:06.895Z,10.85
2023-04-17T19:59:33.767Z,13.30
2023-04-17T20:02:01.205Z,12.68
2023-04-17T20:04:28.348Z,12.10
2023-04-17T20:06:55.293Z,14.45
2023-04-17T20:09:22.347Z,11.82
2023-04-17T20:11:49.315Z,14.10
2023-04-17T20:14:19.619Z,17.83
2023-04-17T20:16:47.119Z,15.75
2023-04-17T20:19:14.467Z,19.25
2023-04-17T20:21:42.909Z,11.93
2023-04-17T20:24:09.732Z,13.15
2023-04-17T20:26:37.653Z,11.68
2023-04-17T20:29:04.627Z,10.23
2023-04-17T20:31:34.002Z,9.70
2023-04-17T20:34:01.307Z,17.80
2023-04-17T20:36:28.766Z,8.75
2023-04-17T20:38:55.705Z,6.60
2023-04-17T20:41:22.667Z,7.93
2023-04-17T20:44:00.174Z,6.15
2023-04-17T20:46:27.969Z,7.95
2023-04-17T20:48:55.121Z,8.00
2023-04-17T20:51:27.341Z,7.70
2023-04-17T20:53:54.871Z,7.03
2023-04-17T20:56:22.096Z,6.88
2023-04-17T20:58:49.006Z,10.63
2023-04-17T21:01:16.514Z,13.93
2023-04-17T21:03:44.088Z,12.90
2023-04-17T21:06:11.202Z,16.17
2023-04-17T21:08:39.471Z,21.15
2023-04-17T21:11:06.907Z,26.73
2023-04-17T21:13:34.062Z,19.33
2023-04-17T21:16:01.119Z,20.58
2023-04-17T21:18:28.012Z,11.77
2023-04-17T21:20:55.713Z,8.30
2023-04-17T21:23:22.634Z,10.02
2023-04-17T21:25:52.091Z,6.93
2023-04-17T21:28:20.067Z,7.35
2023-04-17T21:30:47.641Z,7.43
2023-04-17T21:33:14.676Z,8.55
2023-04-17T21:35:42.034Z,7.15
2023-04-17T21:38:09.080Z,6.22
2023-04-17T21:40:37.125Z,4.65
2023-04-17T21:43:04.356Z,5.35
2023-04-17T21:45:32.350Z,5.15
2023-04-17T21:47:59.307Z,4.93
2023-04-17T21:50:26.377Z,4.47
2023-04-17T21:52:53.297Z,6.75
2023-04-17T21:55:20.326Z,5.22
2023-04-17T21:57:47.630Z,4.80
2023-04-17T22:00:17.607Z,5.40
2023-04-17T22:02:46.625Z,5.88
2023-04-17T22:05:13.537Z,6.68
2023-04-17T22:07:51.687Z,4.53
2023-04-17T22:10:22.690Z,5.85
2023-04-17T22:12:50.098Z,8.82
2023-04-17T22:15:17.038Z,6.22
2023-04-17T22:17:44.060Z,5.13
2023-04-17T22:20:11.902Z,5.25
2023-04-17T22:22:39.156Z,4.97
2023-04-17T22:25:06.526Z,7.00
2023-04-17T22:27:33.519Z,3.60
2023-04-17T22:30:00.848Z,3.72
2023-04-17T22:32:28.101Z,4.50
2023-04-17T22:34:54.986Z,4.22
2023-04-17T22:37:22.028Z,5.38
2023-04-17T22:39:49.842Z,5.22
2023-04-17T22:42:17.174Z,4.50
2023-04-17T22:44:44.270Z,4.32
2023-04-17T22:47:11.272Z,3.67
2023-04-17T22:49:38.182Z,2.72
2023-04-17T22:52:08.530Z,4.40
2023-04-17T22:54:35.664Z,3.90
2023-04-17T22:57:02.870Z,4.95
2023-04-17T22:59:30.054Z,4.18
2023-04-17T23:01:57.388Z,3.28
2023-04-17T23:04:24.862Z,3.20
2023-04-17T23:06:51.829Z,2.75
2023-04-17T23:09:18.807Z,2.75
2023-04-17T23:12:04.434Z,4.60
2023-04-17T23:14:31.505Z,3.42
2023-04-17T23:16:58.466Z,4.90
2023-04-17T23:19:25.325Z,5.18
2023-04-17T23:21:52.291Z,5.03
2023-04-17T23:24:19.405Z,5.47
2023-04-17T23:26:48.622Z,6.18
2023-04-17T23:29:16.376Z,4.90
2023-04-17T23:31:45.610Z,4.75
2023-04-17T23:34:12.898Z,6.13
2023-04-17T23:36:39.952Z,4.90
2023-04-17T23:39:06.836Z,5.45
2023-04-17T23:41:34.918Z,5.15
2023-04-17T23:44:02.056Z,5.40
2023-04-17T23:46:29.460Z,4.15
2023-04-17T23:48:56.893Z,4.78
2023-04-17T23:51:23.770Z,4.60
2023-04-17T23:53:51.213Z,4.15
2023-04-17T23:56:22.170Z,3.35
2023-04-17T23:58:49.232Z,2.25
